createdAt,value
2019-02-04T00:03:28.542Z,2.60
2019-02-04T00:08:34.881Z,2.70
2019-02-04T00:13:42.024Z,2.15
2019-02-04T00:18:48.632Z,2.10
2019-02-04T00:23:54.742Z,2.40
2019-02-04T00:29:00.931Z,2.70
2019-02-04T00:34:06.958Z,2.70
2019-02-04T00:39:12.473Z,2.30
2019-02-04T00:44:18.919Z,2.40
2019-02-04T00:49:25.154Z,2.47
2019-02-04T00:54:30.911Z,2.45
2019-02-04T00:59:37.382Z,2.25
2019-02-04T01:04:43.394Z,2.17
2019-02-04T01:09:50.001Z,2.25
2019-02-04T01:14:56.451Z,2.45
2019-02-04T01:20:02.560Z,2.12
2019-02-04T01:25:08.861Z,2.20
2019-02-04T01:30:14.931Z,2.50
2019-02-04T01:35:21.214Z,2.25
2019-02-04T01:40:27.502Z,1.95
2019-02-04T01:45:33.276Z,2.22
2019-02-04T01:50:39.464Z,2.20
2019-02-04T01:55:45.122Z,2.30
2019-02-04T02:00:51.001Z,1.70
2019-02-04T02:05:56.992Z,2.00
2019-02-04T02:11:02.050Z,1.90
2019-02-04T02:16:08.481Z,1.95
2019-02-04T02:21:14.576Z,1.80
2019-02-04T02:26:20.562Z,2.05
2019-02-04T02:31:26.421Z,2.05
2019-02-04T02:36:32.751Z,1.82
2019-02-04T02:41:38.511Z,1.80
2019-02-04T02:46:44.693Z,1.72
2019-02-04T02:51:50.533Z,1.85
2019-02-04T02:56:56.363Z,1.85
2019-02-04T03:02:02.029Z,1.90
2019-02-04T03:07:07.736Z,1.75
2019-02-04T03:12:13.682Z,1.98
2019-02-04T03:17:19.263Z,2.12
2019-02-04T03:22:25.069Z,1.98
2019-02-04T03:27:30.924Z,1.95
2019-02-04T03:32:37.205Z,1.72
2019-02-04T03:37:42.751Z,2.08
2019-02-04T03:42:48.522Z,2.42
2019-02-04T03:48:04.678Z,1.95
2019-02-04T03:53:01.801Z,1.80
2019-02-04T03:58:07.482Z,1.80
2019-02-04T04:03:13.422Z,1.82
2019-02-04T04:08:19.142Z,2.42
2019-02-04T04:13:24.812Z,2.30
2019-02-04T04:18:30.502Z,1.50
2019-02-04T04:23:36.132Z,1.60
2019-02-04T04:28:41.991Z,1.80
2019-02-04T04:33:47.752Z,2.17
2019-02-04T04:38:53.432Z,2.10
2019-02-04T04:43:59.152Z,2.45
2019-02-04T04:49:04.881Z,1.75
2019-02-04T04:54:10.562Z,2.08
2019-02-04T04:59:16.883Z,1.92
2019-02-04T05:04:22.781Z,1.70
2019-02-04T05:09:28.768Z,1.92
2019-02-04T05:14:34.531Z,1.98
2019-02-04T05:19:40.312Z,1.72
2019-02-04T05:24:46.383Z,2.00
2019-02-04T05:29:52.121Z,2.17
2019-02-04T05:34:57.883Z,1.85
2019-02-04T05:40:03.622Z,1.92
2019-02-04T05:45:10.052Z,2.35
2019-02-04T05:50:17.529Z,1.92
2019-02-04T05:55:24.112Z,1.90
2019-02-04T06:00:35.601Z,2.20
2019-02-04T06:05:41.941Z,1.90
2019-02-04T06:10:47.661Z,1.90
2019-02-04T06:15:53.277Z,1.80
2019-02-04T06:20:59.271Z,2.12
2019-02-04T06:26:05.183Z,1.82
2019-02-04T06:31:11.002Z,2.22
2019-02-04T06:36:16.632Z,2.22
2019-02-04T06:41:22.972Z,1.98
2019-02-04T06:46:28.661Z,2.02
2019-02-04T06:51:34.302Z,1.90
2019-02-04T06:56:40.272Z,1.92
2019-02-04T07:01:46.062Z,2.10
2019-02-04T07:06:51.779Z,1.70
2019-02-04T07:11:57.462Z,2.20
2019-02-04T07:17:03.162Z,2.15
2019-02-04T07:22:09.082Z,2.02
2019-02-04T07:27:14.842Z,2.30
2019-02-04T07:32:20.691Z,2.00
2019-02-04T07:37:46.700Z,2.40
2019-02-04T07:42:52.631Z,2.70
2019-02-04T07:47:58.438Z,2.40
2019-02-04T07:53:04.071Z,2.87
2019-02-04T07:58:09.871Z,3.37
2019-02-04T08:03:15.591Z,3.00
2019-02-04T08:08:21.403Z,3.00
2019-02-04T08:13:27.112Z,6.70
2019-02-04T08:18:33.921Z,13.08
2019-02-04T08:23:40.062Z,9.85
2019-02-04T08:28:45.741Z,11.05
2019-02-04T08:33:51.783Z,8.33
2019-02-04T08:38:58.881Z,6.50
2019-02-04T08:44:04.771Z,7.62
2019-02-04T08:49:10.731Z,6.55
2019-02-04T08:54:16.442Z,9.35
2019-02-04T08:59:22.622Z,8.35
2019-02-04T09:04:28.112Z,7.97
2019-02-04T09:09:33.762Z,7.42
2019-02-04T09:14:39.355Z,8.45
2019-02-04T09:19:45.042Z,8.23
2019-02-04T09:24:50.674Z,7.75
2019-02-04T09:29:57.169Z,7.72
2019-02-04T09:35:03.493Z,8.00
2019-02-04T09:40:11.453Z,8.10
2019-02-04T09:45:17.904Z,7.75
2019-02-04T09:50:24.480Z,6.87
2019-02-04T09:55:35.901Z,6.80
2019-02-04T10:00:41.551Z,7.00
2019-02-04T10:05:47.260Z,6.92
2019-02-04T10:10:53.002Z,6.47
2019-02-04T10:15:58.993Z,6.80
2019-02-04T10:21:04.778Z,7.15
2019-02-04T10:26:11.431Z,7.10
2019-02-04T10:31:36.122Z,6.33
2019-02-04T10:36:42.239Z,6.53
2019-02-04T10:41:48.106Z,7.97
2019-02-04T10:46:53.772Z,6.85
2019-02-04T10:51:59.614Z,5.83
2019-02-04T10:57:05.672Z,6.00
2019-02-04T11:02:11.530Z,5.25
2019-02-04T11:07:17.130Z,5.28
2019-02-04T11:12:22.646Z,5.37
2019-02-04T11:17:27.911Z,5.35
2019-02-04T11:22:33.419Z,5.03
2019-02-04T11:27:39.000Z,4.50
2019-02-04T11:32:44.685Z,4.75
2019-02-04T11:37:50.386Z,5.20
2019-02-04T11:42:56.062Z,4.40
2019-02-04T11:48:02.694Z,5.10
2019-02-04T11:53:07.947Z,4.67
2019-02-04T11:58:13.417Z,5.30
2019-02-04T12:03:18.810Z,4.78
2019-02-04T12:08:23.852Z,4.12
2019-02-04T12:13:28.958Z,4.45
2019-02-04T12:18:34.672Z,4.70
2019-02-04T12:23:40.802Z,4.30
2019-02-04T12:28:46.245Z,4.42
2019-02-04T12:33:51.506Z,3.77
2019-02-04T12:38:56.717Z,4.12
2019-02-04T12:44:02.008Z,4.35
2019-02-04T12:49:07.733Z,4.22
2019-02-04T12:54:13.928Z,3.95
2019-02-04T12:59:19.151Z,3.75
2019-02-04T13:04:24.811Z,3.65
2019-02-04T13:09:30.235Z,3.47
2019-02-04T13:14:35.962Z,3.90
2019-02-04T13:19:41.782Z,3.58
2019-02-04T13:24:47.651Z,5.75
2019-02-04T13:29:53.251Z,3.77
2019-02-04T13:34:59.342Z,3.55
2019-02-04T13:40:05.500Z,3.72
2019-02-04T13:45:13.841Z,3.50
2019-02-04T13:50:19.940Z,3.40
2019-02-04T13:55:28.691Z,3.52
2019-02-04T14:00:34.541Z,3.37
2019-02-04T14:05:41.174Z,3.50
2019-02-04T14:10:47.889Z,3.37
2019-02-04T14:15:53.252Z,3.22
2019-02-04T14:20:58.560Z,3.37
2019-02-04T14:26:04.191Z,3.42
2019-02-04T14:31:10.232Z,3.70
2019-02-04T14:36:15.935Z,3.90
2019-02-04T14:41:21.742Z,3.65
2019-02-04T14:47:01.523Z,3.58
2019-02-04T14:52:48.022Z,3.27
2019-02-04T14:58:39.082Z,3.15
2019-02-04T15:04:08.631Z,3.72
2019-02-04T15:21:02.441Z,3.70
2019-02-04T15:26:52.101Z,3.22
2019-02-04T15:32:56.742Z,3.10
2019-02-04T15:38:12.611Z,4.20
2019-02-04T15:43:41.152Z,3.62
2019-02-04T15:49:23.442Z,3.62
2019-02-04T15:54:29.712Z,4.90
2019-02-04T15:59:35.601Z,4.50
2019-02-04T16:04:41.713Z,4.50
2019-02-04T16:09:47.546Z,3.85
2019-02-04T16:14:54.272Z,3.52
2019-02-04T16:20:00.423Z,3.98
2019-02-04T16:25:06.323Z,4.20
2019-02-04T16:30:16.112Z,4.65
2019-02-04T16:35:22.196Z,5.35
2019-02-04T16:40:28.082Z,5.15
2019-02-04T16:51:11.884Z,4.87
2019-02-04T16:56:17.873Z,4.95
2019-02-04T17:01:23.692Z,5.35
2019-02-04T17:06:29.743Z,4.78
2019-02-04T17:11:35.573Z,4.15
2019-02-04T17:16:41.372Z,4.90
2019-02-04T17:21:47.362Z,5.20
2019-02-04T17:26:52.872Z,5.22
2019-02-04T17:32:00.487Z,5.33
2019-02-04T17:37:06.434Z,6.95
2019-02-04T17:42:12.412Z,12.40
2019-02-04T17:47:18.303Z,18.45
2019-02-04T17:52:24.513Z,15.18
2019-02-04T17:57:30.453Z,11.60
2019-02-04T18:02:36.543Z,27.50
2019-02-04T18:07:42.254Z,11.83
2019-02-04T18:12:49.143Z,8.80
2019-02-04T18:17:55.056Z,8.78
2019-02-04T18:23:00.704Z,8.15
2019-02-04T18:28:07.426Z,8.05
2019-02-04T18:33:13.496Z,8.30
2019-02-04T18:38:19.592Z,8.08
2019-02-04T18:43:25.902Z,7.72
2019-02-04T18:48:31.792Z,7.58
2019-02-04T18:53:37.486Z,7.20
2019-02-04T18:58:43.601Z,7.58
2019-02-04T19:03:48.973Z,7.70
2019-02-04T19:08:54.712Z,8.05
2019-02-04T19:14:00.561Z,8.83
2019-02-04T19:19:07.631Z,7.97
2019-02-04T19:24:13.913Z,8.10
2019-02-04T19:29:19.671Z,7.15
2019-02-04T19:34:25.821Z,7.80
2019-02-04T19:39:31.552Z,8.05
2019-02-04T19:44:37.504Z,7.25
2019-02-04T19:49:43.223Z,7.70
2019-02-04T19:54:49.084Z,6.55
2019-02-04T19:59:54.734Z,6.90
2019-02-04T20:05:00.803Z,7.15
2019-02-04T20:10:07.142Z,7.40
2019-02-04T20:15:16.412Z,7.65
2019-02-04T20:20:22.553Z,7.15
2019-02-04T20:25:30.021Z,7.90
2019-02-04T20:30:45.705Z,6.80
2019-02-04T20:35:45.382Z,7.78
2019-02-04T20:40:51.083Z,6.85
2019-02-04T20:45:57.592Z,7.78
2019-02-04T20:51:05.020Z,8.43
2019-02-04T20:56:11.433Z,8.65
2019-02-04T21:01:16.941Z,8.40
2019-02-04T21:06:22.966Z,8.50
2019-02-04T21:11:28.616Z,7.87
2019-02-04T21:16:34.975Z,8.18
2019-02-04T21:21:40.752Z,8.18
2019-02-04T21:26:46.733Z,8.50
2019-02-04T21:31:52.623Z,9.03
2019-02-04T21:36:58.571Z,8.58
2019-02-04T21:42:04.563Z,7.92
2019-02-04T21:47:10.522Z,8.48
2019-02-04T21:52:16.422Z,9.55
2019-02-04T21:57:22.409Z,10.98
2019-02-04T22:02:28.253Z,12.05
2019-02-04T22:07:34.142Z,17.02
2019-02-04T22:12:40.112Z,15.55
2019-02-04T22:17:46.093Z,12.98
2019-02-04T22:22:52.383Z,15.32
2019-02-04T22:27:58.412Z,15.05
2019-02-04T22:33:04.235Z,14.33
2019-02-04T22:38:10.162Z,10.80
2019-02-04T22:43:16.052Z,11.63
2019-02-04T22:48:22.032Z,11.15
2019-02-04T22:53:28.092Z,11.75
2019-02-04T22:58:35.482Z,11.18
2019-02-04T23:03:41.461Z,10.72
2019-02-04T23:08:47.609Z,11.20
2019-02-04T23:13:54.641Z,10.23
2019-02-04T23:19:01.022Z,10.28
2019-02-04T23:24:07.172Z,10.05
2019-02-04T23:29:13.242Z,10.10
2019-02-04T23:34:19.292Z,10.40
2019-02-04T23:39:25.142Z,9.98
2019-02-04T23:44:31.053Z,9.83
2019-02-04T23:49:37.802Z,10.15
2019-02-04T23:54:45.770Z,8.98
2019-02-04T23:59:51.692Z,9.85
